createdAt,value
2023-02-24T00:02:09.048Z,100492.00
2023-02-24T00:04:42.019Z,100500.84
2023-02-24T00:07:17.939Z,100491.94
2023-02-24T00:09:58.871Z,100499.50
2023-02-24T00:12:30.168Z,100503.38
2023-02-24T00:14:59.203Z,100509.75
2023-02-24T00:17:31.187Z,100510.94
2023-02-24T00:20:00.272Z,100514.06
2023-02-24T00:22:29.316Z,100518.88
2023-02-24T00:25:02.141Z,100520.59
2023-02-24T00:27:33.434Z,100524.91
2023-02-24T00:30:06.185Z,100530.47
2023-02-24T00:32:37.233Z,100527.09
2023-02-24T00:35:06.923Z,100537.78
2023-02-24T00:37:35.909Z,100534.28
2023-02-24T00:40:11.898Z,100531.31
2023-02-24T00:42:45.544Z,100534.72
2023-02-24T00:45:17.847Z,100544.38
2023-02-24T00:47:47.362Z,100543.59
2023-02-24T00:50:16.407Z,100547.44
2023-02-24T00:52:45.449Z,100544.28
2023-02-24T00:55:15.951Z,100551.53
2023-02-24T00:57:48.936Z,100562.88
2023-02-24T01:00:18.716Z,100560.50
2023-02-24T01:02:50.454Z,100563.19
2023-02-24T01:05:20.460Z,100571.34
2023-02-24T01:07:49.402Z,100575.97
2023-02-24T01:10:19.086Z,100567.78
2023-02-24T01:12:50.952Z,100575.44
2023-02-24T01:15:22.705Z,100577.28
2023-02-24T01:17:51.901Z,100588.66
2023-02-24T01:20:20.991Z,100585.41
2023-02-24T01:22:54.459Z,100588.34
2023-02-24T01:25:23.623Z,100599.28
2023-02-24T01:27:57.091Z,100603.56
2023-02-24T01:30:26.047Z,100611.84
2023-02-24T01:32:55.036Z,100612.25
2023-02-24T01:35:25.187Z,100619.25
2023-02-24T01:37:54.166Z,100621.53
2023-02-24T01:40:23.075Z,100628.47
2023-02-24T01:42:59.523Z,100636.84
2023-02-24T01:45:37.538Z,100635.22
2023-02-24T01:48:13.727Z,100637.69
2023-02-24T01:50:43.022Z,100653.38
2023-02-24T01:53:12.682Z,100651.50
2023-02-24T01:55:47.959Z,100651.88
2023-02-24T01:58:26.148Z,100666.41
2023-02-24T02:00:58.671Z,100666.22
2023-02-24T02:03:34.700Z,100665.41
2023-02-24T02:06:12.580Z,100668.69
2023-02-24T02:08:43.978Z,100674.72
2023-02-24T02:11:23.581Z,100680.72
2023-02-24T02:13:54.538Z,100686.19
2023-02-24T02:16:46.512Z,100694.84
2023-02-24T02:19:27.427Z,100704.28
2023-02-24T02:22:07.690Z,100710.81
2023-02-24T02:25:26.334Z,100703.66
2023-02-24T02:28:32.398Z,100708.72
2023-02-24T02:31:32.978Z,100713.41
2023-02-24T02:34:17.803Z,100716.25
2023-02-24T02:37:06.585Z,100717.19
2023-02-24T02:40:01.296Z,100723.91
2023-02-24T02:43:14.985Z,100727.59
2023-02-24T02:45:48.439Z,100733.41
2023-02-24T02:48:23.087Z,100733.19
2023-02-24T02:51:05.060Z,100751.75
2023-02-24T02:53:38.368Z,100758.63
2023-02-24T02:56:14.082Z,100757.09
2023-02-24T02:58:49.764Z,100760.44
2023-02-24T03:01:22.556Z,100758.13
2023-02-24T03:03:58.113Z,100773.16
2023-02-24T03:06:49.681Z,100773.75
2023-02-24T03:09:33.586Z,100779.00
2023-02-24T03:12:13.590Z,100778.97
2023-02-24T03:14:52.531Z,100791.28
2023-02-24T03:17:30.279Z,100791.06
2023-02-24T03:20:21.061Z,100798.94
2023-02-24T03:23:12.643Z,100796.91
2023-02-24T03:25:52.857Z,100802.78
2023-02-24T03:28:34.860Z,100803.75
2023-02-24T03:31:19.186Z,100807.41
2023-02-24T03:34:04.535Z,100803.88
2023-02-24T03:36:34.075Z,100811.19
2023-02-24T03:39:06.504Z,100808.19
2023-02-24T03:42:02.096Z,100811.19
2023-02-24T03:44:34.201Z,100822.88
2023-02-24T03:47:04.208Z,100821.56
2023-02-24T03:49:33.610Z,100822.44
2023-02-24T03:52:25.020Z,100824.16
2023-02-24T03:55:18.012Z,100841.97
2023-02-24T03:58:15.262Z,100851.53
2023-02-24T04:00:56.390Z,100855.72
2023-02-24T04:03:39.192Z,100860.84
2023-02-24T04:06:42.961Z,100866.53
2023-02-24T04:09:30.078Z,100867.72
2023-02-24T04:12:19.585Z,100877.41
2023-02-24T04:15:27.806Z,100873.91
2023-02-24T04:18:19.604Z,100872.13
2023-02-24T04:20:54.030Z,100882.91
2023-02-24T04:23:28.136Z,100885.50
2023-02-24T04:25:57.123Z,100888.69
2023-02-24T04:28:29.243Z,100878.91
2023-02-24T04:31:10.967Z,100883.75
2023-02-24T04:33:41.887Z,100892.44
2023-02-24T04:36:13.689Z,100893.25
2023-02-24T04:38:43.760Z,100886.56
2023-02-24T04:41:22.053Z,100897.13
2023-02-24T04:43:51.809Z,100900.03
2023-02-24T04:46:21.507Z,100907.63
2023-02-24T04:48:51.830Z,100911.97
2023-02-24T04:51:21.635Z,100918.34
2023-02-24T04:53:51.023Z,100919.88
2023-02-24T04:56:20.150Z,100928.56
2023-02-24T04:58:49.445Z,100934.13
2023-02-24T05:01:18.780Z,100930.16
2023-02-24T05:03:48.452Z,100932.94
2023-02-24T05:06:18.744Z,100941.53
2023-02-24T05:08:48.000Z,100944.09
2023-02-24T05:11:19.451Z,100939.03
2023-02-24T05:13:50.050Z,100951.50
2023-02-24T05:16:21.363Z,100945.00
2023-02-24T05:19:17.048Z,100952.53
2023-02-24T05:21:52.472Z,100960.75
2023-02-24T05:24:21.693Z,100963.75
2023-02-24T05:26:51.161Z,100967.13
2023-02-24T05:29:20.091Z,100974.44
2023-02-24T05:31:53.989Z,100979.41
2023-02-24T05:34:25.171Z,100978.13
2023-02-24T05:36:54.781Z,100985.34
2023-02-24T05:39:26.072Z,100996.03
2023-02-24T05:41:57.715Z,100996.00
2023-02-24T05:44:28.173Z,100998.75
2023-02-24T05:47:01.460Z,101001.03
2023-02-24T05:49:34.742Z,100997.22
2023-02-24T05:52:09.740Z,101005.41
2023-02-24T05:54:44.089Z,101016.78
2023-02-24T05:57:17.890Z,101005.66
2023-02-24T05:59:47.154Z,101013.53
2023-02-24T06:02:18.269Z,101009.75
2023-02-24T06:04:54.938Z,101015.72
2023-02-24T06:07:27.089Z,101014.44
2023-02-24T06:10:00.973Z,101021.81
2023-02-24T06:12:32.761Z,101017.47
2023-02-24T06:15:03.164Z,101014.75
2023-02-24T06:17:32.133Z,101023.31
2023-02-24T06:20:01.278Z,101024.72
2023-02-24T06:22:44.292Z,101030.47
2023-02-24T06:25:31.960Z,101030.47
2023-02-24T06:28:02.630Z,101031.53
2023-02-24T06:30:33.589Z,101036.72
2023-02-24T06:33:02.567Z,101042.03
2023-02-24T06:35:33.691Z,101055.94
2023-02-24T06:38:02.754Z,101064.22
2023-02-24T06:40:32.247Z,101068.16
2023-02-24T06:43:01.254Z,101071.38
2023-02-24T06:45:31.729Z,101077.44
2023-02-24T06:48:00.669Z,101078.84
2023-02-24T06:50:29.654Z,101091.94
2023-02-24T06:53:01.588Z,101092.41
2023-02-24T06:55:30.545Z,101091.94
2023-02-24T06:58:05.060Z,101076.59
2023-02-24T07:00:39.421Z,101097.78
2023-02-24T07:03:16.398Z,101093.09
2023-02-24T07:05:54.838Z,101096.81
2023-02-24T07:08:28.129Z,101094.59
2023-02-24T07:11:00.669Z,101101.97
2023-02-24T07:13:30.800Z,101109.84
2023-02-24T07:16:08.004Z,101120.44
2023-02-24T07:18:41.369Z,101111.72
2023-02-24T07:21:15.004Z,101126.16
2023-02-24T07:23:50.443Z,101124.59
2023-02-24T07:26:23.985Z,101124.59
2023-02-24T07:28:55.787Z,101137.13
2023-02-24T07:31:26.861Z,101151.91
2023-02-24T07:34:02.852Z,101154.09
2023-02-24T07:36:35.834Z,101160.00
2023-02-24T07:39:04.884Z,101151.88
2023-02-24T07:41:36.845Z,101146.31
2023-02-24T07:44:10.261Z,101159.94
2023-02-24T07:46:39.245Z,101156.28
2023-02-24T07:49:10.791Z,101156.28
2023-02-24T07:51:43.865Z,101169.63
2023-02-24T07:54:13.743Z,101158.53
2023-02-24T07:56:57.269Z,101160.25
2023-02-24T07:59:33.149Z,101161.03
2023-02-24T08:02:05.436Z,101168.09
2023-02-24T08:04:37.130Z,101172.44
2023-02-24T08:07:06.072Z,101168.66
2023-02-24T08:10:07.850Z,101174.00
2023-02-24T08:12:43.311Z,101169.78
2023-02-24T08:15:24.522Z,101171.06
2023-02-24T08:18:00.202Z,101180.13
2023-02-24T08:20:37.011Z,101185.03
2023-02-24T08:23:09.450Z,101182.91
2023-02-24T08:25:39.223Z,101188.25
2023-02-24T08:28:14.055Z,101193.53
2023-02-24T08:30:47.990Z,101195.28
2023-02-24T08:33:30.817Z,101197.72
2023-02-24T08:36:03.057Z,101186.56
2023-02-24T08:38:45.371Z,101193.63
2023-02-24T08:41:21.869Z,101197.47
2023-02-24T08:43:51.351Z,101202.50
2023-02-24T08:46:33.615Z,101199.38
2023-02-24T08:49:02.760Z,101197.50
2023-02-24T08:51:37.763Z,101205.94
2023-02-24T08:54:16.117Z,101221.97
2023-02-24T08:56:49.965Z,101227.38
2023-02-24T08:59:38.662Z,101234.97
2023-02-24T09:02:25.773Z,101232.31
2023-02-24T09:05:06.147Z,101237.16
2023-02-24T09:07:44.378Z,101244.78
2023-02-24T09:10:19.378Z,101241.59
2023-02-24T09:12:49.950Z,101249.16
2023-02-24T09:15:21.405Z,101250.31
2023-02-24T09:18:02.147Z,101243.22
2023-02-24T09:20:49.452Z,101242.34
2023-02-24T09:23:21.114Z,101247.56
2023-02-24T09:25:55.057Z,101258.44
2023-02-24T09:28:30.037Z,101251.00
2023-02-24T09:31:07.767Z,101262.22
2023-02-24T09:33:44.747Z,101256.53
2023-02-24T09:36:36.788Z,101260.06
2023-02-24T09:39:05.749Z,101271.38
2023-02-24T09:42:18.529Z,101275.25
2023-02-24T09:44:56.456Z,101274.13
2023-02-24T09:47:43.801Z,101284.97
2023-02-24T09:50:46.924Z,101288.31
2023-02-24T09:53:18.200Z,101286.59
2023-02-24T09:56:28.829Z,101294.88
2023-02-24T09:59:27.674Z,101300.78
2023-02-24T10:02:15.037Z,101304.09
2023-02-24T10:05:28.167Z,101320.13
2023-02-24T10:07:58.879Z,101320.91
2023-02-24T10:10:36.652Z,101319.28
2023-02-24T10:13:31.010Z,101331.72
2023-02-24T10:16:11.713Z,101324.72
2023-02-24T10:19:15.548Z,101328.44
2023-02-24T10:22:09.875Z,101324.69
2023-02-24T10:24:48.918Z,101319.75
2023-02-24T10:28:08.614Z,101321.47
2023-02-24T10:31:27.007Z,101312.25
2023-02-24T10:34:11.164Z,101317.66
2023-02-24T10:36:41.680Z,101316.56
2023-02-24T10:39:16.444Z,101307.16
2023-02-24T10:41:58.059Z,101294.94
2023-02-24T10:44:37.549Z,101306.84
2023-02-24T10:47:13.833Z,101305.66
2023-02-24T10:49:58.878Z,101300.34
2023-02-24T10:52:38.308Z,101306.50
2023-02-24T10:55:44.104Z,101299.28
2023-02-24T10:58:53.808Z,101303.03
2023-02-24T11:01:59.850Z,101311.69
2023-02-24T11:05:05.453Z,101307.41
2023-02-24T11:07:44.750Z,101308.44
2023-02-24T11:10:15.793Z,101293.84
2023-02-24T11:13:09.864Z,101301.44
2023-02-24T11:16:04.790Z,101303.59
2023-02-24T11:18:34.833Z,101296.28
2023-02-24T11:21:08.335Z,101287.09
2023-02-24T11:23:51.379Z,101283.06
2023-02-24T11:26:46.473Z,101287.94
2023-02-24T11:29:57.044Z,101294.16
2023-02-24T11:33:12.991Z,101303.66
2023-02-24T11:35:50.005Z,101303.13
2023-02-24T11:38:43.795Z,101295.25
2023-02-24T11:41:26.794Z,101290.38
2023-02-24T11:44:35.456Z,101291.72
2023-02-24T11:47:10.466Z,101299.84
2023-02-24T11:50:22.468Z,101289.84
2023-02-24T11:52:54.237Z,101280.38
2023-02-24T11:55:44.821Z,101263.03
2023-02-24T11:58:31.092Z,101267.38
2023-02-24T12:01:11.536Z,101266.28
2023-02-24T12:04:06.379Z,101282.50
2023-02-24T12:06:44.785Z,101264.66
2023-02-24T12:09:27.660Z,101262.47
2023-02-24T12:12:24.420Z,101248.69
2023-02-24T12:15:01.885Z,101250.03
2023-02-24T12:18:05.112Z,101258.72
2023-02-24T12:20:51.838Z,101256.53
2023-02-24T12:23:24.905Z,101263.31
2023-02-24T12:26:21.587Z,101267.38
2023-02-24T12:28:59.046Z,101272.78
2023-02-24T12:31:30.879Z,101256.28
2023-02-24T12:34:13.264Z,101266.81
2023-02-24T12:36:59.466Z,101266.81
2023-02-24T12:39:55.839Z,101267.34
2023-02-24T12:42:46.579Z,101264.38
2023-02-24T12:45:27.213Z,101270.34
2023-02-24T12:48:30.809Z,101278.22
2023-02-24T12:51:25.422Z,101280.34
2023-02-24T12:54:09.841Z,101285.16
2023-02-24T12:56:58.435Z,101288.50
2023-02-24T12:59:32.914Z,101287.38
2023-02-24T13:02:09.198Z,101299.84
2023-02-24T13:04:50.443Z,101303.94
2023-02-24T13:07:37.928Z,101316.09
2023-02-24T13:10:12.793Z,101312.84
2023-02-24T13:12:56.787Z,101322.59
2023-02-24T13:15:28.520Z,101330.72
2023-02-24T13:17:58.436Z,101328.00
2023-02-24T13:20:39.548Z,101337.75
2023-02-24T13:23:35.667Z,101352.13
2023-02-24T13:26:05.109Z,101372.66
2023-02-24T13:28:39.410Z,101378.41
2023-02-24T13:31:14.182Z,101372.97
2023-02-24T13:33:49.266Z,101371.88
2023-02-24T13:36:26.629Z,101367.00
2023-02-24T13:39:07.507Z,101372.28
2023-02-24T13:41:41.398Z,101368.31
2023-02-24T13:44:30.766Z,101367.47
2023-02-24T13:47:21.033Z,101367.41
2023-02-24T13:50:30.237Z,101377.16
2023-02-24T13:53:24.522Z,101385.59
2023-02-24T13:56:27.759Z,101386.22
2023-02-24T13:59:14.813Z,101387.50
2023-02-24T14:02:03.015Z,101389.72
2023-02-24T14:04:34.658Z,101394.88
2023-02-24T14:07:38.418Z,101410.31
2023-02-24T14:10:22.299Z,101415.69
2023-02-24T14:12:57.204Z,101419.53
2023-02-24T14:15:28.834Z,101418.38
2023-02-24T14:18:06.437Z,101421.63
2023-02-24T14:20:38.837Z,101408.63
2023-02-24T14:23:24.257Z,101415.91
2023-02-24T14:26:13.471Z,101421.09
2023-02-24T14:28:43.532Z,101423.75
2023-02-24T14:31:17.731Z,101427.78
2023-02-24T14:33:47.204Z,101435.94
2023-02-24T14:36:20.843Z,101455.47
2023-02-24T14:39:14.888Z,101448.53
2023-02-24T14:41:44.634Z,101451.72
2023-02-24T14:44:27.300Z,101459.19
2023-02-24T14:47:00.681Z,101467.13
2023-02-24T14:49:35.360Z,101473.91
2023-02-24T14:52:32.887Z,101470.16
2023-02-24T14:55:28.892Z,101484.66
2023-02-24T14:58:07.734Z,101492.09
2023-02-24T15:00:42.675Z,101496.44
2023-02-24T15:03:23.061Z,101496.38
2023-02-24T15:05:55.846Z,101492.03
2023-02-24T15:08:39.842Z,101501.41
2023-02-24T15:11:17.842Z,101492.78
2023-02-24T15:14:02.577Z,101500.44
2023-02-24T15:16:39.363Z,101493.16
2023-02-24T15:19:32.837Z,101499.97
2023-02-24T15:22:03.166Z,101499.41
2023-02-24T15:24:35.895Z,101509.53
2023-02-24T15:27:29.073Z,101509.66
2023-02-24T15:30:07.748Z,101522.78
2023-02-24T15:32:41.890Z,101511.59
2023-02-24T15:35:27.604Z,101520.13
2023-02-24T15:37:56.950Z,101521.41
2023-02-24T15:40:27.983Z,101522.84
2023-02-24T15:43:12.737Z,101519.09
2023-02-24T15:45:41.686Z,101524.00
2023-02-24T15:48:31.407Z,101520.22
2023-02-24T15:51:06.670Z,101526.97
2023-02-24T15:53:35.661Z,101531.22
2023-02-24T15:56:04.625Z,101540.06
2023-02-24T15:58:35.533Z,101545.72
2023-02-24T16:01:07.073Z,101537.41
2023-02-24T16:03:36.311Z,101541.81
2023-02-24T16:06:05.535Z,101549.09
2023-02-24T16:08:45.384Z,101545.31
2023-02-24T16:11:18.019Z,101554.00
2023-02-24T16:13:55.249Z,101554.06
2023-02-24T16:16:25.781Z,101551.97
2023-02-24T16:18:55.220Z,101556.50
2023-02-24T16:21:24.326Z,101550.13
2023-02-24T16:23:53.722Z,101553.63
2023-02-24T16:26:28.921Z,101554.22
2023-02-24T16:29:02.224Z,101553.00
2023-02-24T16:31:33.893Z,101546.53
2023-02-24T16:34:03.163Z,101553.72
2023-02-24T16:36:32.632Z,101547.03
2023-02-24T16:39:02.785Z,101539.66
2023-02-24T16:41:32.194Z,101551.66
2023-02-24T16:44:01.203Z,101551.69
2023-02-24T16:46:38.467Z,101541.38
2023-02-24T16:49:13.195Z,101545.69
2023-02-24T16:51:42.389Z,101547.97
2023-02-24T16:54:11.279Z,101549.00
2023-02-24T16:56:40.250Z,101559.28
2023-02-24T16:59:09.435Z,101556.13
2023-02-24T17:01:38.746Z,101551.78
2023-02-24T17:04:10.601Z,101544.13
2023-02-24T17:06:39.535Z,101546.34
2023-02-24T17:09:09.260Z,101549.66
2023-02-24T17:11:38.326Z,101555.63
2023-02-24T17:14:10.951Z,101543.94
2023-02-24T17:16:45.380Z,101542.06
2023-02-24T17:19:14.991Z,101535.00
2023-02-24T17:21:46.105Z,101542.56
2023-02-24T17:24:18.231Z,101533.91
2023-02-24T17:26:47.757Z,101531.69
2023-02-24T17:29:16.713Z,101530.56
2023-02-24T17:31:45.912Z,101527.53
2023-02-24T17:34:15.182Z,101535.88
2023-02-24T17:36:44.038Z,101530.38
2023-02-24T17:39:15.394Z,101527.19
2023-02-24T17:41:44.586Z,101526.78
2023-02-24T17:44:13.539Z,101529.16
2023-02-24T17:46:42.697Z,101530.84
2023-02-24T17:49:11.712Z,101520.84
2023-02-24T17:51:40.670Z,101520.69
2023-02-24T17:54:09.863Z,101523.16
2023-02-24T17:56:38.831Z,101522.81
2023-02-24T17:59:07.693Z,101533.72
2023-02-24T18:01:36.648Z,101529.22
2023-02-24T18:04:08.345Z,101530.59
2023-02-24T18:06:37.591Z,101518.19
2023-02-24T18:09:09.082Z,101514.69
2023-02-24T18:11:40.661Z,101512.72
2023-02-24T18:14:09.622Z,101510.94
2023-02-24T18:16:41.154Z,101512.47
2023-02-24T18:19:12.673Z,101509.78
2023-02-24T18:21:41.694Z,101511.84
2023-02-24T18:24:10.822Z,101511.94
2023-02-24T18:26:42.840Z,101515.56
2023-02-24T18:29:11.840Z,101523.09
2023-02-24T18:31:40.915Z,101524.19
2023-02-24T18:34:10.070Z,101525.59
2023-02-24T18:46:22.561Z,101532.03
2023-02-24T18:48:57.654Z,101522.78
2023-02-24T18:51:27.649Z,101519.53
2023-02-24T18:53:59.421Z,101518.84
2023-02-24T18:56:31.581Z,101517.41
2023-02-24T18:59:06.215Z,101518.13
2023-02-24T19:01:43.590Z,101511.75
2023-02-24T19:04:27.261Z,101507.06
2023-02-24T19:06:56.857Z,101506.13
2023-02-24T19:09:26.004Z,101511.34
2023-02-24T19:11:55.050Z,101513.47
2023-02-24T19:14:29.572Z,101514.53
2023-02-24T19:17:05.689Z,101496.06
2023-02-24T19:19:35.360Z,101484.22
2023-02-24T19:22:04.815Z,101471.19
2023-02-24T19:24:34.003Z,101476.94
2023-02-24T19:27:02.975Z,101474.81
2023-02-24T19:29:31.950Z,101462.97
2023-02-24T19:32:01.165Z,101460.03
2023-02-24T19:34:30.187Z,101464.84
2023-02-24T19:36:59.319Z,101463.28
2023-02-24T19:39:30.696Z,101461.25
2023-02-24T19:41:59.764Z,101465.41
2023-02-24T19:44:30.966Z,101466.97
2023-02-24T19:47:00.003Z,101473.66
2023-02-24T19:49:29.080Z,101469.34
2023-02-24T19:52:00.064Z,101474.19
2023-02-24T19:54:30.915Z,101462.63
2023-02-24T19:56:59.933Z,101470.50
2023-02-24T19:59:30.022Z,101469.88
2023-02-24T20:01:59.006Z,101468.56
2023-02-24T20:04:28.076Z,101464.22
2023-02-24T20:06:57.370Z,101470.34
2023-02-24T20:09:27.748Z,101471.34
2023-02-24T20:12:05.956Z,101476.31
2023-02-24T20:14:34.950Z,101471.97
2023-02-24T20:17:03.931Z,101466.28
2023-02-24T20:19:34.383Z,101465.47
2023-02-24T20:22:03.583Z,101464.22
2023-02-24T20:24:35.897Z,101456.84
2023-02-24T20:27:06.697Z,101452.34
2023-02-24T20:29:38.828Z,101452.75
2023-02-24T20:32:08.199Z,101451.47
2023-02-24T20:34:38.835Z,101446.00
2023-02-24T20:37:07.917Z,101445.41
2023-02-24T20:39:37.294Z,101441.94
2023-02-24T20:42:06.703Z,101439.47
2023-02-24T20:44:35.663Z,101440.44
2023-02-24T20:47:07.179Z,101445.16
2023-02-24T20:49:45.224Z,101439.19
2023-02-24T20:52:14.490Z,101430.94
2023-02-24T20:54:55.089Z,101434.44
2023-02-24T20:57:24.080Z,101428.66
2023-02-24T21:00:03.048Z,101423.28
2023-02-24T21:02:32.642Z,101422.69
2023-02-24T21:05:01.985Z,101406.25
2023-02-24T21:07:34.743Z,101407.84
2023-02-24T21:10:04.997Z,101406.72
2023-02-24T21:12:34.263Z,101406.63
2023-02-24T21:15:04.276Z,101399.78
2023-02-24T21:17:35.146Z,101394.53
2023-02-24T21:20:04.321Z,101391.03
2023-02-24T21:22:34.190Z,101385.53
2023-02-24T21:25:03.370Z,101384.63
2023-02-24T21:27:32.248Z,101384.00
2023-02-24T21:30:01.341Z,101380.63
2023-02-24T21:32:30.300Z,101375.59
2023-02-24T21:34:59.397Z,101380.50
2023-02-24T21:37:29.008Z,101378.88
2023-02-24T21:39:57.941Z,101374.59
2023-02-24T21:42:29.506Z,101374.75
2023-02-24T21:45:03.114Z,101377.94
2023-02-24T21:47:32.903Z,101367.59
2023-02-24T21:50:04.902Z,101368.88
2023-02-24T21:52:37.133Z,101361.84
2023-02-24T21:55:07.731Z,101354.38
2023-02-24T21:57:41.377Z,101353.75
2023-02-24T22:00:21.662Z,101356.47
2023-02-24T22:02:55.261Z,101352.03
2023-02-24T22:05:32.473Z,101353.50
2023-02-24T22:08:01.549Z,101349.53
2023-02-24T22:10:30.514Z,101351.84
2023-02-24T22:12:59.572Z,101349.88
2023-02-24T22:15:28.704Z,101341.06
2023-02-24T22:17:58.699Z,101351.47
2023-02-24T22:20:27.636Z,101354.41
2023-02-24T22:22:56.551Z,101351.28
2023-02-24T22:25:25.657Z,101353.72
2023-02-24T22:27:54.830Z,101360.22
2023-02-24T22:30:23.933Z,101359.63
2023-02-24T22:32:53.328Z,101354.94
2023-02-24T22:35:22.294Z,101360.28
2023-02-24T22:37:51.332Z,101350.38
2023-02-24T22:40:20.896Z,101348.25
2023-02-24T22:42:50.377Z,101351.34
2023-02-24T22:45:21.498Z,101345.03
2023-02-24T22:47:50.446Z,101346.47
2023-02-24T22:50:20.500Z,101342.72
2023-02-24T22:52:50.051Z,101346.72
2023-02-24T22:55:20.466Z,101352.72
2023-02-24T22:57:49.422Z,101348.63
2023-02-24T23:00:22.252Z,101353.41
2023-02-24T23:02:51.317Z,101356.81
2023-02-24T23:05:20.254Z,101345.31
2023-02-24T23:07:49.325Z,101352.31
2023-02-24T23:10:18.546Z,101350.03
2023-02-24T23:12:47.746Z,101356.25
2023-02-24T23:15:17.262Z,101354.81
2023-02-24T23:17:46.237Z,101350.59
2023-02-24T23:20:15.094Z,101353.75
2023-02-24T23:22:44.256Z,101351.72
2023-02-24T23:25:15.599Z,101357.69
2023-02-24T23:27:44.909Z,101363.66
2023-02-24T23:30:14.072Z,101357.53
2023-02-24T23:32:45.782Z,101351.31
2023-02-24T23:35:17.910Z,101367.97
2023-02-24T23:37:48.485Z,101357.47
2023-02-24T23:40:17.508Z,101361.47
2023-02-24T23:42:47.175Z,101362.84
2023-02-24T23:45:16.213Z,101361.38
2023-02-24T23:47:47.201Z,101363.41
2023-02-24T23:50:18.321Z,101360.53
2023-02-24T23:52:47.187Z,101348.56
2023-02-24T23:55:16.805Z,101346.84
2023-02-24T23:57:45.769Z,101346.72
